createdAt,value
2022-12-20T00:00:59.551Z,8.70
2022-12-20T00:05:01.270Z,8.69
2022-12-20T00:09:05.756Z,8.68
2022-12-20T00:13:07.533Z,8.68
2022-12-20T00:17:08.892Z,8.71
2022-12-20T00:21:12.606Z,8.70
2022-12-20T00:25:14.154Z,8.81
2022-12-20T00:29:15.537Z,8.89
2022-12-20T00:33:16.867Z,8.89
2022-12-20T00:37:18.305Z,8.97
2022-12-20T00:41:25.907Z,9.06
2022-12-20T00:45:27.296Z,9.05
2022-12-20T00:49:28.698Z,9.06
2022-12-20T00:53:31.162Z,9.09
2022-12-20T00:57:32.537Z,9.08
2022-12-20T01:01:36.760Z,9.09
2022-12-20T01:05:39.474Z,9.08
2022-12-20T01:09:41.115Z,9.14
2022-12-20T01:13:45.262Z,9.15
2022-12-20T01:17:47.248Z,9.16
2022-12-20T01:21:48.635Z,9.14
2022-12-20T01:25:51.641Z,9.10
2022-12-20T01:29:53.040Z,9.01
2022-12-20T01:33:54.714Z,8.97
2022-12-20T01:37:56.081Z,8.93
2022-12-20T01:41:57.627Z,8.93
2022-12-20T01:45:59.041Z,8.89
2022-12-20T01:50:04.920Z,8.85
2022-12-20T01:54:11.951Z,8.89
2022-12-20T01:58:16.394Z,8.89
2022-12-20T02:02:18.180Z,8.90
2022-12-20T02:06:23.335Z,8.90
2022-12-20T02:10:36.722Z,8.92
2022-12-20T02:15:15.685Z,8.89
2022-12-20T02:19:48.062Z,8.85
2022-12-20T02:24:20.265Z,8.85
2022-12-20T02:28:44.823Z,8.88
2022-12-20T02:33:00.722Z,8.90
2022-12-20T02:37:02.277Z,8.93
2022-12-20T02:41:13.856Z,8.87
2022-12-20T02:45:15.843Z,8.78
2022-12-20T02:49:22.204Z,8.77
2022-12-20T02:53:23.682Z,8.72
2022-12-20T02:57:33.755Z,8.70
2022-12-20T03:01:39.363Z,8.62
2022-12-20T03:05:46.789Z,8.53
2022-12-20T03:09:48.287Z,8.48
2022-12-20T03:13:50.197Z,8.43
2022-12-20T03:17:51.892Z,8.44
2022-12-20T03:21:53.595Z,8.45
2022-12-20T03:25:55.433Z,8.40
2022-12-20T03:29:56.816Z,8.42
2022-12-20T03:33:58.295Z,8.47
2022-12-20T03:37:59.777Z,8.46
2022-12-20T03:42:01.383Z,8.51
2022-12-20T03:46:02.809Z,8.58
2022-12-20T03:50:05.806Z,8.59
2022-12-20T03:54:07.489Z,8.63
2022-12-20T03:58:09.453Z,8.63
2022-12-20T04:02:11.038Z,8.67
2022-12-20T04:06:12.493Z,8.71
2022-12-20T04:10:14.132Z,8.73
2022-12-20T04:14:15.734Z,8.74
2022-12-20T04:18:17.408Z,8.68
2022-12-20T04:22:19.022Z,8.71
2022-12-20T04:26:21.064Z,8.61
2022-12-20T04:30:22.752Z,8.51
2022-12-20T04:34:24.200Z,8.37
2022-12-20T04:38:25.703Z,8.25
2022-12-20T04:42:27.300Z,8.15
2022-12-20T04:46:28.708Z,8.06
2022-12-20T04:50:30.092Z,8.05
2022-12-20T04:54:31.502Z,7.94
2022-12-20T04:58:34.673Z,8.03
2022-12-20T05:02:36.108Z,7.97
2022-12-20T05:06:37.606Z,8.00
2022-12-20T05:10:39.007Z,8.10
2022-12-20T05:14:40.507Z,8.21
2022-12-20T05:18:48.515Z,8.11
2022-12-20T05:23:09.545Z,7.99
2022-12-20T05:27:10.870Z,7.86
2022-12-20T05:31:12.790Z,7.69
2022-12-20T05:35:14.797Z,7.63
2022-12-20T05:39:16.542Z,7.63
2022-12-20T05:43:19.422Z,7.72
2022-12-20T05:47:20.983Z,7.80
2022-12-20T05:51:22.513Z,7.91
2022-12-20T05:55:24.204Z,8.08
2022-12-20T05:59:27.310Z,8.21
2022-12-20T06:03:28.899Z,8.17
2022-12-20T06:07:31.917Z,8.02
2022-12-20T06:11:33.787Z,7.93
2022-12-20T06:15:35.273Z,7.86
2022-12-20T06:19:36.643Z,7.91
2022-12-20T06:23:38.126Z,7.86
2022-12-20T06:27:39.745Z,7.76
2022-12-20T06:31:41.197Z,7.73
2022-12-20T06:35:43.020Z,7.65
2022-12-20T06:39:44.531Z,7.60
2022-12-20T06:43:46.008Z,7.64
2022-12-20T06:47:47.528Z,7.60
2022-12-20T06:51:49.332Z,7.54
2022-12-20T06:55:51.180Z,7.53
2022-12-20T06:59:53.023Z,7.46
2022-12-20T07:03:54.566Z,7.38
2022-12-20T07:07:56.038Z,7.41
2022-12-20T07:11:57.524Z,7.38
2022-12-20T07:16:00.174Z,7.56
2022-12-20T07:20:01.454Z,7.58
2022-12-20T07:24:02.924Z,7.57
2022-12-20T07:28:04.427Z,7.56
2022-12-20T07:32:06.503Z,7.57
2022-12-20T07:36:11.213Z,7.69
2022-12-20T07:40:13.205Z,7.97
2022-12-20T07:44:14.683Z,8.03
2022-12-20T07:48:19.693Z,8.10
2022-12-20T07:52:27.830Z,8.13
2022-12-20T07:56:36.051Z,8.13
2022-12-20T08:00:42.361Z,8.23
2022-12-20T08:04:44.085Z,8.24
2022-12-20T08:08:52.562Z,8.20
2022-12-20T08:12:55.248Z,8.20
2022-12-20T08:16:56.602Z,8.11
2022-12-20T08:20:57.989Z,8.10
2022-12-20T08:24:59.325Z,8.08
2022-12-20T08:29:00.705Z,8.08
2022-12-20T08:33:02.142Z,8.06
2022-12-20T08:37:09.051Z,8.09
2022-12-20T08:41:15.659Z,8.11
2022-12-20T08:45:19.371Z,8.20
2022-12-20T08:49:20.921Z,8.25
2022-12-20T08:53:22.333Z,8.29
2022-12-20T08:57:23.697Z,8.35
2022-12-20T09:01:26.883Z,8.45
2022-12-20T09:05:28.399Z,8.52
2022-12-20T09:09:29.980Z,8.56
2022-12-20T09:13:31.368Z,8.68
2022-12-20T09:17:32.739Z,8.76
2022-12-20T09:21:34.712Z,8.87
2022-12-20T09:25:37.444Z,8.91
2022-12-20T09:29:38.779Z,8.92
2022-12-20T09:33:40.869Z,9.07
2022-12-20T09:37:42.300Z,9.20
2022-12-20T09:41:44.724Z,9.34
2022-12-20T09:45:48.444Z,9.56
2022-12-20T09:49:55.293Z,9.66
2022-12-20T09:54:15.979Z,9.67
2022-12-20T09:58:35.686Z,9.75
2022-12-20T10:07:03.279Z,10.01
2022-12-20T10:11:23.324Z,10.15
2022-12-20T10:15:38.243Z,10.29
2022-12-20T10:20:08.450Z,10.40
2022-12-20T10:24:25.018Z,10.48
2022-12-20T10:28:35.756Z,10.53
2022-12-20T10:32:37.142Z,10.62
2022-12-20T10:36:38.515Z,10.63
2022-12-20T10:45:25.462Z,10.74
2022-12-20T10:49:34.057Z,10.85
2022-12-20T10:53:37.094Z,10.92
2022-12-20T10:57:42.535Z,10.92
2022-12-20T11:01:47.110Z,10.88
2022-12-20T11:05:57.852Z,10.90
2022-12-20T11:10:02.602Z,10.93
2022-12-20T11:14:16.009Z,11.01
2022-12-20T11:18:48.011Z,11.12
2022-12-20T11:23:12.427Z,11.19
2022-12-20T11:27:40.330Z,11.36
2022-12-20T11:31:54.520Z,11.55
2022-12-20T11:36:04.410Z,11.64
2022-12-20T11:40:17.103Z,11.76
2022-12-20T11:44:27.862Z,11.99
2022-12-20T11:48:43.557Z,12.27
2022-12-20T11:52:51.859Z,12.56
2022-12-20T12:02:22.417Z,12.87
2022-12-20T12:06:32.776Z,12.95
2022-12-20T12:10:40.214Z,12.94
2022-12-20T12:15:05.227Z,12.91
2022-12-20T12:19:12.473Z,12.91
2022-12-20T12:23:23.359Z,12.86
2022-12-20T12:27:28.891Z,12.79
2022-12-20T12:31:56.324Z,12.75
2022-12-20T12:36:18.345Z,12.76
2022-12-20T12:40:53.243Z,12.81
2022-12-20T12:44:59.741Z,12.94
2022-12-20T12:49:06.587Z,13.05
2022-12-20T12:53:15.892Z,13.13
2022-12-20T12:57:19.066Z,13.21
2022-12-20T13:01:54.971Z,13.21
2022-12-20T13:05:56.410Z,13.17
2022-12-20T13:09:58.999Z,13.16
2022-12-20T13:14:22.340Z,13.10
2022-12-20T13:18:25.013Z,13.02
2022-12-20T13:22:26.961Z,13.00
2022-12-20T13:26:49.881Z,12.99
2022-12-20T13:30:54.009Z,13.01
2022-12-20T13:34:57.281Z,13.03
2022-12-20T13:39:01.669Z,13.07
2022-12-20T13:43:13.666Z,13.11
2022-12-20T13:47:32.296Z,13.16
2022-12-20T13:51:34.139Z,13.15
2022-12-20T13:55:38.430Z,13.10
2022-12-20T13:59:39.924Z,12.97
2022-12-20T14:03:45.507Z,12.92
2022-12-20T14:07:51.623Z,12.88
2022-12-20T14:11:52.949Z,12.82
2022-12-20T14:15:54.856Z,12.76
2022-12-20T14:20:05.614Z,12.74
2022-12-20T14:24:16.995Z,12.75
2022-12-20T14:28:29.797Z,12.73
2022-12-20T14:32:31.869Z,12.65
2022-12-20T14:36:34.396Z,12.63
2022-12-20T14:40:40.815Z,12.55
2022-12-20T14:44:42.144Z,12.59
2022-12-20T14:48:43.763Z,12.66
2022-12-20T14:52:45.666Z,12.67
2022-12-20T14:56:50.689Z,12.67
2022-12-20T15:01:01.378Z,12.63
2022-12-20T15:05:38.601Z,12.57
2022-12-20T15:09:39.952Z,12.56
2022-12-20T15:13:47.287Z,12.51
2022-12-20T15:17:48.580Z,12.52
2022-12-20T15:21:50.380Z,12.51
2022-12-20T15:25:51.741Z,12.50
2022-12-20T15:29:53.076Z,12.48
2022-12-20T15:33:57.308Z,12.45
2022-12-20T15:37:58.808Z,12.43
2022-12-20T15:42:02.656Z,12.40
2022-12-20T15:46:04.683Z,12.35
2022-12-20T15:50:06.923Z,12.28
2022-12-20T15:54:27.213Z,12.19
2022-12-20T15:58:28.707Z,12.06
2022-12-20T16:02:33.126Z,11.93
2022-12-20T16:06:34.742Z,11.75
2022-12-20T16:15:16.327Z,11.64
2022-12-20T16:20:32.589Z,11.65
2022-12-20T16:33:27.967Z,11.67
2022-12-20T16:37:38.955Z,11.66
2022-12-20T16:46:06.377Z,11.62
2022-12-20T16:50:14.372Z,11.62
2022-12-20T16:59:25.819Z,11.59
2022-12-20T17:04:02.770Z,11.55
2022-12-20T17:17:33.116Z,11.47
2022-12-20T17:25:56.669Z,11.50
2022-12-20T17:29:58.598Z,11.53
2022-12-20T17:34:08.122Z,11.57
2022-12-20T17:38:23.640Z,11.61
2022-12-20T17:47:01.838Z,11.65
2022-12-20T17:51:33.128Z,11.59
2022-12-20T17:56:09.352Z,11.53
2022-12-20T18:00:38.169Z,11.40
2022-12-20T18:04:40.970Z,11.32
2022-12-20T18:08:42.825Z,11.28
2022-12-20T18:12:44.224Z,11.20
2022-12-20T18:16:48.272Z,11.11
2022-12-20T18:20:50.799Z,11.02
2022-12-20T18:24:52.892Z,10.98
2022-12-20T18:29:01.265Z,10.93
2022-12-20T18:33:02.583Z,10.88
2022-12-20T18:37:05.882Z,10.87
2022-12-20T18:41:12.732Z,10.80
2022-12-20T18:45:14.273Z,10.75
2022-12-20T18:49:15.685Z,10.72
2022-12-20T18:53:17.059Z,10.66
2022-12-20T18:57:18.399Z,10.60
2022-12-20T19:01:25.396Z,10.55
2022-12-20T19:05:28.734Z,10.57
2022-12-20T19:09:30.088Z,10.56
2022-12-20T19:13:31.418Z,10.53
2022-12-20T19:17:33.296Z,10.48
2022-12-20T19:21:36.354Z,10.46
2022-12-20T19:25:38.257Z,10.40
2022-12-20T19:29:39.621Z,10.39
2022-12-20T19:33:43.449Z,10.37
2022-12-20T19:37:44.753Z,10.36
2022-12-20T19:42:06.830Z,10.36
2022-12-20T19:46:09.798Z,10.33
2022-12-20T19:50:11.679Z,10.31
2022-12-20T19:54:13.018Z,10.31
2022-12-20T19:58:14.369Z,10.27
2022-12-20T20:02:16.176Z,10.29
2022-12-20T20:06:18.559Z,10.32
2022-12-20T20:10:20.008Z,10.30
2022-12-20T20:14:21.802Z,10.27
2022-12-20T20:18:24.196Z,10.25
2022-12-20T20:22:26.707Z,10.23
2022-12-20T20:26:29.396Z,10.25
2022-12-20T20:30:30.739Z,10.24
2022-12-20T20:34:32.042Z,10.22
2022-12-20T20:38:34.833Z,10.20
2022-12-20T20:42:36.128Z,10.24
2022-12-20T20:46:37.992Z,10.24
2022-12-20T20:50:40.243Z,10.24
2022-12-20T20:54:41.780Z,10.25
2022-12-20T20:58:45.045Z,10.29
2022-12-20T21:02:46.897Z,10.29
2022-12-20T21:06:48.448Z,10.32
2022-12-20T21:10:50.268Z,10.34
2022-12-20T21:15:21.114Z,10.32
2022-12-20T21:19:13.482Z,10.33
2022-12-20T21:23:14.857Z,10.34
2022-12-20T21:27:16.447Z,10.34
2022-12-20T21:31:19.231Z,10.38
2022-12-20T21:35:21.200Z,10.39
2022-12-20T21:39:22.581Z,10.38
2022-12-20T21:43:23.918Z,10.41
2022-12-20T21:47:25.319Z,10.39
2022-12-20T21:51:28.203Z,10.39
2022-12-20T21:55:29.517Z,10.40
2022-12-20T21:59:31.051Z,10.39
2022-12-20T22:03:32.426Z,10.41
2022-12-20T22:07:33.928Z,10.41
2022-12-20T22:11:36.012Z,10.39
2022-12-20T22:15:38.844Z,10.39
2022-12-20T22:19:40.455Z,10.41
2022-12-20T22:23:42.491Z,10.38
2022-12-20T22:27:44.057Z,10.42
2022-12-20T22:31:45.811Z,10.41
2022-12-20T22:35:47.203Z,10.41
2022-12-20T22:39:49.147Z,10.41
2022-12-20T22:43:50.689Z,10.41
2022-12-20T22:47:52.209Z,10.41
2022-12-20T22:52:06.360Z,10.41
2022-12-20T22:56:09.240Z,10.41
2022-12-20T23:00:13.054Z,10.39
2022-12-20T23:04:15.182Z,10.40
2022-12-20T23:08:16.883Z,10.38
2022-12-20T23:12:37.300Z,10.39
2022-12-20T23:16:38.728Z,10.42
2022-12-20T23:20:58.829Z,10.46
2022-12-20T23:25:00.719Z,10.42
2022-12-20T23:29:04.050Z,10.40
2022-12-20T23:33:05.350Z,10.40
2022-12-20T23:37:06.770Z,10.38
2022-12-20T23:41:09.908Z,10.42
2022-12-20T23:45:11.739Z,10.41
2022-12-20T23:49:13.066Z,10.41
2022-12-20T23:53:14.745Z,10.39
2022-12-20T23:57:16.387Z,10.38
